This is the latest recevied weather packets stored in our database for station/object IZ2MHJ-3. If no packets are shown the sender has not sent any weather packets the latest 10 day(s).
| Time | Temp. | Humidity | Pressure | Rain* | Wind** | Luminosity | Snow |
|---|---|---|---|---|---|---|---|
| 1787392238 | 27.22° C | 57% | 1015.6 hPa | - | - | - | - |
| 1787391038 | 26.11° C | 58% | 1015.6 hPa | - | - | - | - |
| 1787389838 | 28.89° C | 52% | 1015.2 hPa | - | - | - | - |
| 1787388637 | 28.89° C | 51% | 1015.1 hPa | - | - | - | - |
| 1787387437 | 27.22° C | 54% | 1014.4 hPa | - | - | - | - |
| 1787386237 | 25.56° C | 58% | 1015 hPa | - | - | - | - |
| 1787385036 | 22.22° C | 70% | 1015.3 hPa | - | - | - | - |
| 1787383836 | 22.78° C | 68% | 1015.3 hPa | - | - | - | - |
| 1787382636 | 22.22° C | 73% | 1015.3 hPa | - | - | - | - |
| 1787381435 | 21.67° C | 73% | 1015.1 hPa | - | - | - | - |
| 1787380235 | 20.56° C | 74% | 1015 hPa | - | - | - | - |
| 1787379035 | 21.67° C | 72% | 1014.7 hPa | - | - | - | - |
| 1787377834 | 20.56° C | 73% | 1014.5 hPa | - | - | - | - |
| 1787376634 | 19.44° C | 79% | 1014.3 hPa | - | - | - | - |
| 1787375434 | 18.33° C | 84% | 1014.2 hPa | - | - | - | - |
| 1787374234 | 17.22° C | 87% | 1014.1 hPa | - | - | - | - |
| 1787373033 | 16.67° C | 90% | 1014 hPa | - | - | - | - |
| 1787371833 | 17.22° C | 87% | 1013.8 hPa | - | - | - | - |
| 1787370633 | 17.22° C | 89% | 1013.7 hPa | - | - | - | - |
| 1787369432 | 17.22° C | 88% | 1013.6 hPa | - | - | - | - |
| 1787368232 | 17.22° C | 88% | 1013.6 hPa | - | - | - | - |
| 1787367032 | 17.78° C | 89% | 1013.5 hPa | - | - | - | - |
| 1787365831 | 17.78° C | 89% | 1013.6 hPa | - | - | - | - |
| 1787364631 | 17.78° C | 89% | 1013.5 hPa | - | - | - | - |
| 1787363431 | 17.78° C | 87% | 1013.4 hPa | - | - | - | - |
* Rain since midnight (hover to see other rain measurements)
** Current wind speed in m/s (hover to see current wind gust speed)